Timeline UpdatesTrip UpdatesNews PostsPvt PostsTravel TipsAdmin PostsConv PostsFollowed PostsChat RequestsBlog PostsPNR Posts

Disclaimer
Search
 
 
Thu Apr 17, 2014 18:05:59 ISTHomeTrainsΣChainsAtlasPNRForumGalleryNewsFAQTripsMembersLoginFeedback
No Recent News for this Train
Other Trains in the News **new
Latest...
.
Thu Nov 14, 2013 (06:37PM)
⇐ Return Journey: Train# 19019

19020/Dehradun - Mumbai Bandra Terminus Express

Apr 15 (1:35PM)
Change Departure Station:
Change Arrival Station:
Post a Train Travel TipPost a Train Travel Tip **new
Post a Comment/Question/Picture/VideoPost a Comment/Question/Picture/Video
Pantry/Catering
✕ NO Pantry Car
✓ Catering Avbl
Loco/Rake Reversals
SRE/Saharanpur Junction (6); LRJ/Laksar Junction (4);
RSA - Rake Sharing
Rake/Coach Composition
LOCO-SLR-HCPV-GEN-GEN-AB1-S1-S2-S3-S4-S5-S6-S7-S8-S9-SLR
Loco
GZB WAP-7 NZM-BDTS. ddn to nzm tkd wdp 3a. By Er...
Read more...
Ankit Shotra Bhagat Entry# 595554
News    PNR    Forum    Time-Table    Availability    Fare Chart    Map    Arr/Dep History    Trips    Gallery    ΣChains    X/O    Timeline    
Travel Time: 38h 45m    84 halts    Distance: 1612 km    Avg Speed: 41 km/hr
Type: Mail/Express
Zone: WR/Western
Departs @ 12:45 (Avg 10m late)
Platform# 3
SMTWTFS
Haridwar Junction/HW 
Arrives @ 03:30 +2 nights (Avg 3m late)
Platform# 5
SMTWTFS
Mumbai Borivali/BVI 

84 halts. 250 intermediate Stations between Haridwar Junction and Mumbai Borivali

Show ALL intermediate Stations  Show Old Time-Table

#CodeStation NameX/OArrivesAvgDepartsAvgHaltPFDay#KmSpeedElevZoneAddress
1DDNDehradun (4)  -10:35+021-51.741648mNRDehradun, Uttarakhand
2DWODoiwala  11:04+411:06+42m--1-31.839484mNRDehradun, Uttarakhand
3RWLRaiwala Junction (2)X  11:38+211:40+152m21-11.120361mNRRishikesh, Uttarakhand
4MOTCMotichur (1)X  12:00+712:02+82m11-4.521312mNRHaridwar, Uttarakhand
5HW»Haridwar Junction (9)»X  12:15+812:45+1030m310.030294mNRHaridwar, Uttarakhand
6JWPJwalapurX  12:53+1212:55+122m--14.021292mNRHaridwar, Uttarakhand
7LRJLaksar Junction (4)X14:00+314:25+525m--126.959238mNRLaksar, Uttarakhand
8RKRoorkee (3)X  14:43+814:45+102m3144.742264mNRRoorkee - 247667, Uttarakhand
9SRESaharanpur Junction (6)X15:35+416:05+130m3179.446276mNRSaharanpur, Uttar Pradesh
10DBDDeoband (2)X  16:50+516:52+72m21113.651258mNRSaharanpur, Uttar Pradesh
11MOZMuzaffarnagar (3)X  17:20+617:22+192m21137.767247mNRMuzaffarNagar, Uttar Pradesh
12KATKhatauli (2)  17:42+2217:44+242m11159.873239mNRKhatauli, Uttar Pradesh
13MUTMeerut Cantt. (2)  18:08+3118:10+312m11188.910230mNRMeerut, Uttar Pradesh
14MTCMeerut City Junction (6)X18:35+1719:20+1045m41193.283229mNRMeerut, Uttar Pradesh
15MDNRModinagar (2)X  19:34+1819:36+182m21212.767221mNRGhaziabad, Uttar Pradesh
16MUDMuradnagar (2)  19:45+1919:47+192m21222.847220mNRGhaziabad, Uttar Pradesh
17GZNNew Ghaziabad (2)X  20:02-20:04-2m21234.614213mNRGhaziabad, Uttar Pradesh
18GZBGhaziabad Junction (6)X  20:30+920:32+112m41240.545217mNRGhaziabad, Uttar Pradesh
19SBBSahibabad Junction (5)X  20:41+1620:43+162m--1247.230209mNRGhaziabad, Uttar Pradesh
20NZMDelhi Hazrat Nizamuddin (7)XO21:15+2021:55+1540m11263.225209mNRNizamuddin East/Sarai KaleKhan Bus Terminal, Delhi NCT
21TKDTuglakabad (4)XO  22:18+1622:20+172m--1272.928213mNRNear Tughlakabad Metro Station, Delhi NCT
22FDBFaridabad (4)  22:44+1222:46+132m31284.040206mNRFaridabad, Haryana
23BVHBallabgarh (5)O  22:58+1223:00+122m--1292.135203mNRFaridabad, Haryana
24PWLPalwal (8)X  23:36+523:38+72m--1313.285200mNRPalwal, Haryana
25KSVKosi Kalan (3)XO  00:08+2000:10+212m22355.729189mNCRKosi Kalan, Uttar Pradesh
26MTJMathura Junction (10)X  01:35+101:45+210m32397.280179mNCRMathura, Uttar Pradesh
27BTEBharatpur Junction (5)  02:10+702:15+75m--2430.784174mWCRBharatpur, Rajasthan
28BXNBayana Junction (3)XO  02:45+1002:47+122m--2472.774198mWCRBayana, Rajasthan
29FSPFateh SinghpuraO  03:03+1403:05+162m--2492.479223mWCRState Highway 1, Rajasthan
30HANHindaun City (2)  03:15+1803:17+212m--2505.568230mWCRKarauli, Rajasthan
31SMBJShri Mahabirji (3)O  03:26+2103:28+212m--2515.749240mWCRKarauli, Rajasthan
32GGCGangapur City (3)  04:10+804:20+1110m--2549.864270mWCRGangapur, Rajasthan
33NNWNarayanpur Tatwara (2)X  04:36+1304:38+152m--2566.884256mWCRSawai Madhopur, Rajasthan
34MLZMalarnaX  04:50+1404:52+132m--2583.565236mWCRSawai Madhopur, Rajasthan
35SWMSawai Madhopur Junction (4)XO  05:20+1105:25+125m--2613.795266mWCRSawai Madhopur, Rajasthan
36IDGIndargarh Sumerganj Mandi (2)X  05:48+1605:50+182m--2650.082247mWCRIndargarh, Rajasthan
37LKELakheri (3)  05:58+2006:00+212m--2661.074228mWCRBundi, Rajasthan
38KPTNKeshorai PatanX  06:38+2406:40+252m--2708.160243mWCRSH 33, Rajasthan
39GQLGurla  06:48+2706:50+292m--2716.08251mWCRSH 33, Rajasthan
40KOTAKota Junction (5)X07:30+807:50+1220m22721.451256mWCRKota, Rajasthan
41DKNTDakaniya Talav (2)  08:01+1708:03+192m22730.885278mWCRKota, Rajasthan
42DARADaraX  08:30+2108:32+232m--2768.955354mWCRDara, Rajasthan
43MKXMorak (2)X  08:48+2408:50+242m--2783.642337mWCRMorak, Rajasthan
44RMARamganj Mandi Junction (3)X  09:03+2109:05+242m--2792.757358mWCRRamganj Mandi, Rajasthan
45JHWJhalawar Road (3)  09:18+2309:20+232m--2805.155361mWCRJhalawar City, Rajasthan
46BWMBhawani Mandi (3)X  09:38+1909:40+252m--2821.576384mWCRBhawani Mandi, Madhya Pradesh
47GOHGaroth (2)  09:58+2510:00+262m12844.226441mWCRMadhya Pradesh 458880, Madhya Pradesh
48SGZShamgarh (3)X  10:25+1410:30+165m--2855.067463mWCRMandsaur, Madhya Pradesh
49SVASuwasra (2)  10:42+1810:44+192m--2868.566450mWCRSuwasra, Madhya Pradesh
50CMUChau Mahla (3)X  10:58+1911:00+202m12883.835426mWCRJhalawar, Rajasthan
51THURThuriaX  11:24+1111:26+142m--2898.021430mWCRMDR 45, Madhya Pradesh
52VMAVikramgarh Alot (2)  11:48+511:50+102m12905.661443mWCRKota Division, Madhya Pradesh
53LNRLuni Richha  12:03+812:05+92m--2918.928471mWCRAlote, Madhya Pradesh
54MEPMahidpur Road  12:28+012:30+42m--2929.529493mWCRGogapur, Madhya Pradesh
55NADNagda Junction (4)  13:05+213:15+710m--2946.675468mWRNagda, Madhya Pradesh
56KUHKhachrod (2)  13:26+913:28+102m--2960.457497mWRUjjain, Madhya Pradesh
57RNHRunkheraX  13:39+813:41+72m--2970.963478mWRUjjain, Madhya Pradesh
58BODBangrodX  13:48+813:50+82m--2978.224484mWRRatlam, Madhya Pradesh
59RTMRatlam Junction (7)X  14:15-114:35+320m42988.077495mWRRatlam, Madhya Pradesh
60RTIRaoti (2)  14:56+914:58+82m--21015.071409mWRState Highway 39A, Madhya Pradesh
61BOGBhairongarh (2)  15:08+915:10+82m--21026.851374mWRBhairongarh Railway Station, Madhya Pradesh
62BMIBamnia (2)  15:17+1015:19+92m--21032.842392mWRBamnia, Madhya Pradesh
63AGRAmargarh (2)  15:25+915:27+82m--21036.957410mWRSH 39A, Madhya Pradesh
64PCNPanch Pipila (2)  15:37+915:39+82m--21046.484369mWRSH 39A, Madhya Pradesh
65THDRThandla Road (2)  15:49+1015:51+102m--21060.360317mWRJhabua, Madhya Pradesh
66MGNMeghnagar (3)  15:59+1116:01+132m--21068.373317mWRJhabua, Madhya Pradesh
67ANASAnas (2)  16:13+1616:15+152m--21082.979288mWRMadhya Pradesh 389154 ?, Madhya Pradesh
68BIOBordi (2)  16:21+1616:23+152m--21090.853289mWRNational Highway 59, Gujarat
69DHDDahod (3)  16:35+1916:40+205m--21101.576313mWRDahod, Gujarat
70LMKLimkheda  17:06+2317:08+222m--21134.468205mWRLimkheda, Gujarat
71PPDPiplod Junction  17:15+2317:17+232m--21142.379209mWRPiplod, Gujarat
72SATSant Road (2)X  17:26+2217:28+212m221154.220169mWROrwara, Gujarat
73GDAGodhra Junction (3)X  18:30+018:35+35m1021174.665122mWRGodhra, Gujarat
74KRSAKharsaliya (2)  18:45+718:47+62m--21185.485107mWRPanchmahal, Gujarat
75DRLDerolX  18:56+818:58+72m121198.16881mWRKalol, Gujarat
76CPNChampaner Road JunctionX  19:09+619:11+62m--21210.67578mWRPanchmahal, Gujarat
77SMLASamlaya Junction (3)X  19:20+719:22+72m--21221.84867mWRVadodara, Gujarat
78BRCVadodara Junction (7)  19:55+1420:05+1310m321248.48936mWRVadodara, Gujarat
79MYGMiyagam Karjan (2)  20:25+2120:27+202m--21278.37229mWRKarjan, Gujarat
80BHBharuch Junction (5)  21:01+2321:03+232m421319.06219mWRBharuch, Gujarat
81AKVAnkleshwar Junction (4)X  21:12+2521:14+242m221328.37419mWRAnkleshwar, Gujarat
82KSBKosamba Junction (3)X21:29+1721:31+222m--21346.83230mWRKosamba, Gujarat
83STSurat (4)X  22:30+322:38+38m221378.27119mWRSurat 395001, Gujarat
84NVSNavsari (3)  23:03+823:05+92m--21407.87914mWRNavsari, Gujarat
85BIMBilimora Junction (4)X  23:21+1523:23+152m--21429.03611mWRBilimora, Gujarat
86BLValsad (3)  23:53+1123:55+182m321446.93815mWRValsad, Gujarat
87VAPIVapi (3)X  00:36+400:38+82m--31473.25727mWRVapi, Gujarat
88PLGPalghar (3)  02:04+1102:06+132m--31554.73719mWRPalghar, Maharashtra
89VRVirar (8)  02:56+502:58+62m--31585.8486mWRThane, Maharashtra
90BVI•Mumbai Borivali (8)•  03:30+303:32+62m531611.72319mWRMumbai - 400092, Maharashtra
91BDTSMumbai Bandra Terminus (5)  04:20-3-131630.4-4mWRMumbai 400050, Maharashtra
Scroll to Top
Scroll to Bottom